Time;durP1;ratioP1;P1;durP2;ratioP2;P2;SDS_P1;SDS_P2;PMS_P1;PMS_P2;Temp;Humidity;BMP_temperature;BMP_pressure;BME280_temperature;BME280_humidity;BME280_pressure;Samples;Min_cycle;Max_cycle;Signal;HPM_P1;HPM_P2
2024/04/19 00:01:27;;;;;;;10.80;7.10;;;;;;;4.72;100.00;96947.86;104619;1268;65606;-48
2024/04/19 00:03:54;;;;;;;8.70;5.70;;;;;;;4.68;100.00;96948.36;104481;1268;72586;-48
2024/04/19 00:06:21;;;;;;;9.20;6.40;;;;;;;4.63;100.00;96949.45;104714;1268;62024;-47
2024/04/19 00:08:47;;;;;;;9.00;6.40;;;;;;;4.60;100.00;96950.28;104675;1268;62123;-47
2024/04/19 00:11:14;;;;;;;8.20;6.00;;;;;;;4.60;100.00;96947.30;104720;1272;75493;-46
2024/04/19 00:13:41;;;;;;;9.30;6.40;;;;;;;4.56;100.00;96949.30;104683;1273;65937;-53
2024/04/19 00:16:07;;;;;;;7.50;6.60;;;;;;;4.53;100.00;96953.41;104564;1268;72521;-49
2024/04/19 00:18:34;;;;;;;9.00;5.80;;;;;;;4.51;100.00;96948.17;104618;1273;62475;-50
2024/04/19 00:21:01;;;;;;;9.20;6.20;;;;;;;4.49;100.00;96953.65;104705;1268;62122;-48
2024/04/19 00:23:28;;;;;;;9.00;6.50;;;;;;;4.45;100.00;96953.58;104675;1273;75378;-48
2024/04/19 00:25:54;;;;;;;9.70;6.20;;;;;;;4.48;100.00;96958.02;104678;1272;62218;-48
2024/04/19 00:28:37;;;;;;;8.90;6.60;;;;;;;4.49;100.00;96956.40;104389;1268;72630;-47
2024/04/19 00:31:04;;;;;;;8.10;5.60;;;;;;;4.46;100.00;96958.06;104684;1268;62053;-47
2024/04/19 00:33:30;;;;;;;7.90;6.60;;;;;;;4.43;100.00;96959.58;104535;1268;62072;-47
2024/04/19 00:35:57;;;;;;;7.00;5.90;;;;;;;4.39;100.00;96963.15;104737;1268;76468;-47
2024/04/19 00:38:24;;;;;;;7.90;6.30;;;;;;;4.37;100.00;96963.92;104722;1273;62058;-46
2024/04/19 00:40:50;;;;;;;6.90;6.00;;;;;;;4.37;100.00;96969.80;104695;1272;62136;-48
2024/04/19 00:43:17;;;;;;;11.40;6.80;;;;;;;4.32;100.00;96973.59;104742;1268;62148;-50
2024/04/19 00:45:43;;;;;;;8.80;6.60;;;;;;;4.29;100.00;96972.33;104498;1268;62187;-51
2024/04/19 00:48:12;;;;;;;7.00;5.80;;;;;;;4.28;100.00;96969.27;104557;1272;75718;-52
2024/04/19 00:50:57;;;;;;;7.20;6.00;;;;;;;4.25;100.00;96974.70;104740;1268;67154;-51
2024/04/19 00:53:26;;;;;;;10.80;6.60;;;;;;;4.19;100.00;96972.72;104679;1272;72580;-47
2024/04/19 00:55:55;;;;;;;6.80;5.80;;;;;;;4.14;100.00;96978.23;104711;1268;62074;-50
2024/04/19 00:58:23;;;;;;;6.80;6.10;;;;;;;4.10;100.00;96974.13;104518;1268;62184;-49
2024/04/19 01:00:49;;;;;;;9.40;7.30;;;;;;;4.06;100.00;96976.91;104406;1268;75593;-49
2024/04/19 01:03:16;;;;;;;9.40;6.50;;;;;;;4.02;100.00;96976.95;104521;1268;65220;-48
2024/04/19 01:05:43;;;;;;;8.60;6.50;;;;;;;4.01;100.00;96980.02;104756;1268;72590;-51
2024/04/19 01:08:24;;;;;;;10.10;8.00;;;;;;;3.96;100.00;96982.15;104693;1268;62699;-50
2024/04/19 01:10:51;;;;;;;9.30;7.70;;;;;;;3.94;100.00;96984.28;104692;1273;62103;-49
2024/04/19 01:13:17;;;;;;;10.80;8.00;;;;;;;3.96;100.00;96986.23;104712;1269;62152;-49
2024/04/19 01:15:44;;;;;;;8.90;7.70;;;;;;;3.96;100.00;96987.93;104631;1272;66219;-51
2024/04/19 01:18:11;;;;;;;10.00;7.00;;;;;;;3.95;100.00;96988.20;104647;1269;72439;-49
2024/04/19 01:20:37;;;;;;;9.30;7.60;;;;;;;3.92;100.00;96986.83;104677;1268;62032;-51
2024/04/19 01:23:04;;;;;;;8.30;7.40;;;;;;;3.90;100.00;96991.56;104724;1268;62273;-47
2024/04/19 01:25:37;;;;;;;10.30;7.80;;;;;;;3.91;100.00;96991.23;104572;1268;62190;-47
2024/04/19 01:28:08;;;;;;;11.40;7.40;;;;;;;3.93;100.00;96993.50;104705;1268;66351;-47
2024/04/19 01:30:39;;;;;;;8.80;7.50;;;;;;;3.95;100.00;96994.41;104677;1268;72626;-47
2024/04/19 01:33:05;;;;;;;10.50;7.90;;;;;;;3.92;100.00;96993.57;104695;1273;62180;-48
2024/04/19 01:35:32;;;;;;;12.60;9.00;;;;;;;3.91;100.00;96996.23;104489;1268;62145;-47
2024/04/19 01:37:58;;;;;;;9.70;7.40;;;;;;;3.92;100.00;97000.44;104424;1271;76540;-47
2024/04/19 01:40:25;;;;;;;9.20;7.20;;;;;;;3.92;100.00;97000.46;104405;1268;62454;-46
2024/04/19 01:42:51;;;;;;;8.80;7.70;;;;;;;3.92;100.00;96996.42;104590;1273;62180;-48
2024/04/19 01:45:18;;;;;;;9.60;7.00;;;;;;;3.93;100.00;96998.80;104721;1273;62069;-49
2024/04/19 01:47:45;;;;;;;11.30;8.10;;;;;;;3.95;100.00;96998.02;104567;1268;62116;-50
2024/04/19 01:50:12;;;;;;;8.80;7.60;;;;;;;3.95;100.00;96996.27;104600;1272;75379;-50
2024/04/19 01:52:39;;;;;;;9.30;7.60;;;;;;;3.95;100.00;96998.42;104696;1268;66071;-52
2024/04/19 01:55:05;;;;;;;8.40;7.30;;;;;;;3.99;100.00;96998.73;104768;1273;62166;-49
2024/04/19 01:57:32;;;;;;;9.40;7.70;;;;;;;3.99;100.00;97000.32;104463;1268;62237;-47
2024/04/19 01:59:58;;;;;;;13.00;8.40;;;;;;;4.02;100.00;97004.07;104505;1268;62056;-47
2024/04/19 02:02:26;;;;;;;12.40;8.30;;;;;;;4.05;100.00;97007.55;104507;1268;62175;-47
2024/04/19 02:04:53;;;;;;;10.60;8.70;;;;;;;4.05;100.00;97006.81;104565;1268;66936;-47
2024/04/19 02:07:19;;;;;;;9.00;7.90;;;;;;;4.06;100.00;97005.54;104500;1268;65834;-48
2024/04/19 02:09:46;;;;;;;10.50;8.80;;;;;;;4.02;100.00;97011.48;104505;1271;62110;-48
2024/04/19 02:12:12;;;;;;;12.40;8.20;;;;;;;3.97;100.00;97011.14;104390;1268;62176;-48
2024/04/19 02:14:39;;;;;;;10.40;8.60;;;;;;;3.95;100.00;97013.33;104454;1268;62190;-47
2024/04/19 02:17:05;;;;;;;9.20;8.10;;;;;;;3.94;100.00;97014.17;104544;1268;62065;-51
2024/04/19 02:19:39;;;;;;;11.70;7.90;;;;;;;3.93;100.00;97016.77;104583;1272;62080;-49
2024/04/19 02:22:05;;;;;;;9.80;8.40;;;;;;;3.92;100.00;97015.23;104608;1268;62910;-50
2024/04/19 02:24:32;;;;;;;11.30;8.80;;;;;;;3.92;100.00;97008.71;104715;1268;62048;-50
2024/04/19 02:27:00;;;;;;;11.80;8.90;;;;;;;3.94;100.00;97011.73;104673;1273;75283;-48
2024/04/19 02:32:13;;;;;;;9.60;8.30;;;;;;;3.98;100.00;97014.20;104701;1270;72648;-47
2024/04/19 02:34:40;;;;;;;10.50;8.10;;;;;;;3.95;100.00;97016.45;104764;1272;62074;-47
2024/04/19 02:37:11;;;;;;;8.70;7.60;;;;;;;3.93;100.00;97014.23;104718;1268;62192;-50
2024/04/19 02:39:37;;;;;;;8.90;7.70;;;;;;;3.90;100.00;97017.20;104569;1268;62195;-50
2024/04/19 02:42:04;;;;;;;8.70;7.30;;;;;;;3.89;100.00;97018.48;104527;1268;62177;-50
2024/04/19 02:44:49;;;;;;;12.60;8.70;;;;;;;3.87;100.00;97019.55;104674;1268;72695;-48
2024/04/19 02:47:16;;;;;;;9.90;7.90;;;;;;;3.85;100.00;97018.61;104427;1268;435240;-50
2024/04/19 02:49:43;;;;;;;9.20;8.00;;;;;;;3.87;100.00;97020.71;104571;1268;62203;-48
2024/04/19 02:52:09;;;;;;;12.70;8.10;;;;;;;3.89;100.00;97021.60;104589;1273;62062;-50
2024/04/19 02:54:35;;;;;;;8.70;7.60;;;;;;;3.94;100.00;97023.71;104832;1273;62183;-51
2024/04/19 02:57:02;;;;;;;8.40;6.90;;;;;;;3.98;100.00;97029.89;104637;1270;62481;-47
2024/04/19 02:59:29;;;;;;;12.20;8.10;;;;;;;3.97;100.00;97030.05;104788;1268;62128;-47
2024/04/19 03:01:56;;;;;;;12.40;8.30;;;;;;;3.96;100.00;97032.02;104668;1269;62177;-46
2024/04/19 03:04:35;;;;;;;9.10;8.00;;;;;;;3.96;100.00;97033.77;104707;1268;75364;-47
2024/04/19 03:07:01;;;;;;;9.70;8.50;;;;;;;3.94;100.00;97032.55;104480;1268;66953;-46
2024/04/19 03:09:28;;;;;;;11.00;8.70;;;;;;;3.95;100.00;97034.62;104551;1268;72012;-48
2024/04/19 03:11:54;;;;;;;10.10;7.90;;;;;;;3.92;100.00;97035.59;104521;1268;62004;-47
2024/04/19 03:14:22;;;;;;;9.20;7.70;;;;;;;3.91;100.00;97036.75;104722;1268;62116;-48
2024/04/19 03:16:51;;;;;;;12.40;8.90;;;;;;;3.88;100.00;97032.52;104683;1270;75166;-45
2024/04/19 03:19:38;;;;;;;10.40;8.60;;;;;;;3.82;100.00;97036.94;104632;1268;65803;-51
2024/04/19 03:22:04;;;;;;;11.00;9.80;;;;;;;3.78;100.00;97037.38;104529;1268;62193;-50
2024/04/19 03:24:31;;;;;;;11.80;7.60;;;;;;;3.75;100.00;97039.98;104616;1270;62176;-52
2024/04/19 03:26:58;;;;;;;12.90;10.00;;;;;;;3.74;100.00;97039.40;104723;1273;62071;-48
2024/04/19 03:29:24;;;;;;;9.80;8.80;;;;;;;3.72;100.00;97042.79;104688;1273;75470;-48
2024/04/19 03:31:51;;;;;;;11.50;9.10;;;;;;;3.72;100.00;97050.16;104731;1268;62133;-48
2024/04/19 03:34:19;;;;;;;11.80;9.30;;;;;;;3.68;100.00;97048.84;104688;1268;72407;-48
2024/04/19 03:36:49;;;;;;;9.60;8.50;;;;;;;3.64;100.00;97059.13;104700;1268;62020;-48
2024/04/19 03:39:15;;;;;;;15.90;10.20;;;;;;;3.56;100.00;97058.73;104746;1268;62180;-48
2024/04/19 03:41:43;;;;;;;13.40;9.30;;;;;;;3.55;100.00;97065.98;104667;1273;74689;-48
2024/04/19 03:46:55;;;;;;;10.80;9.30;;;;;;;3.57;100.00;97068.58;104441;1268;73079;-47
2024/04/19 03:49:21;;;;;;;11.80;9.60;;;;;;;3.57;100.00;97071.38;104540;1268;63600;-51
2024/04/19 03:51:48;;;;;;;14.10;9.20;;;;;;;3.56;100.00;97070.10;104633;1268;62123;-48
2024/04/19 03:54:15;;;;;;;13.20;10.30;;;;;;;3.57;100.00;97064.02;104613;1273;75370;-50
2024/04/19 03:56:42;;;;;;;13.20;10.00;;;;;;;3.60;100.00;97067.13;104770;1272;66161;-49
2024/04/19 03:59:09;;;;;;;10.10;8.30;;;;;;;3.66;100.00;97070.93;104666;1272;62180;-48
2024/04/19 04:01:35;;;;;;;11.20;8.30;;;;;;;3.70;100.00;97069.40;104710;1268;61988;-48
2024/04/19 04:04:02;;;;;;;11.00;9.00;;;;;;;3.71;100.00;97070.56;104494;1268;62129;-48
2024/04/19 04:06:28;;;;;;;11.90;8.20;;;;;;;3.71;100.00;97069.71;104473;1273;75941;-47
2024/04/19 04:08:55;;;;;;;11.80;9.00;;;;;;;3.72;100.00;97071.88;105216;1268;62099;-47
2024/04/19 04:11:22;;;;;;;11.60;9.70;;;;;;;3.71;100.00;97070.40;104606;1268;71573;-47
2024/04/19 04:13:48;;;;;;;10.30;9.20;;;;;;;3.73;100.00;97071.56;104367;1268;62081;-46
2024/04/19 04:16:15;;;;;;;10.80;9.60;;;;;;;3.74;100.00;97079.56;104630;1268;62082;-50
2024/04/19 04:18:41;;;;;;;13.50;10.60;;;;;;;3.74;100.00;97076.98;104546;1268;62189;-50
2024/04/19 04:21:08;;;;;;;13.80;11.10;;;;;;;3.73;100.00;97083.05;104559;1268;66092;-53
2024/04/19 04:23:35;;;;;;;12.40;11.00;;;;;;;3.71;100.00;97079.72;104566;1268;72674;-50
2024/04/19 04:26:01;;;;;;;14.70;12.10;;;;;;;3.68;100.00;97081.21;104718;1268;62078;-52
2024/04/19 04:28:28;;;;;;;13.20;11.90;;;;;;;3.68;100.00;97079.73;104775;1268;62298;-47
2024/04/19 04:30:55;;;;;;;17.30;13.40;;;;;;;3.66;100.00;97083.70;104700;1273;76018;-47
2024/04/19 04:33:22;;;;;;;16.20;12.60;;;;;;;3.61;100.00;97082.50;104745;1268;66553;-48
2024/04/19 04:35:48;;;;;;;15.20;13.50;;;;;;;3.60;100.00;97085.20;104735;1268;71926;-49
2024/04/19 04:38:15;;;;;;;16.20;13.00;;;;;;;3.59;100.00;97090.59;104484;1273;62081;-51
2024/04/19 04:40:41;;;;;;;14.80;11.30;;;;;;;3.57;100.00;97088.86;104546;1268;62188;-47
2024/04/19 04:43:08;;;;;;;19.00;13.80;;;;;;;3.56;100.00;97090.51;104513;1268;62199;-49
2024/04/19 04:45:34;;;;;;;14.30;12.70;;;;;;;3.57;100.00;97091.56;104571;1268;62087;-49
2024/04/19 04:48:01;;;;;;;16.20;14.10;;;;;;;3.57;100.00;97091.61;104705;1271;62070;-51
2024/04/19 04:50:28;;;;;;;15.30;13.70;;;;;;;3.59;100.00;97092.61;104700;1268;62075;-52
2024/04/19 04:52:56;;;;;;;18.30;15.40;;;;;;;3.59;100.00;97090.11;104613;1268;62183;-47
2024/04/19 04:55:22;;;;;;;18.80;15.00;;;;;;;3.60;100.00;97090.86;104536;1269;75399;-49
2024/04/19 04:57:49;;;;;;;16.20;14.10;;;;;;;3.64;100.00;97094.25;104452;1273;66065;-49
2024/04/19 05:00:16;;;;;;;17.10;13.90;;;;;;;3.64;100.00;97100.07;104643;1268;72720;-48
2024/04/19 05:02:42;;;;;;;15.50;12.80;;;;;;;3.62;100.00;97100.98;104508;1268;62082;-44
2024/04/19 05:05:09;;;;;;;15.30;12.90;;;;;;;3.59;100.00;97098.77;104339;1268;62065;-49
2024/04/19 05:07:36;;;;;;;13.80;12.30;;;;;;;3.59;100.00;97099.23;104552;1273;76170;-48
2024/04/19 05:10:03;;;;;;;13.70;12.20;;;;;;;3.61;100.00;97089.27;104578;1268;62052;-46
2024/04/19 05:12:29;;;;;;;13.30;10.80;;;;;;;3.65;100.00;97089.69;104673;1268;72631;-48
2024/04/19 05:14:56;;;;;;;14.40;9.90;;;;;;;3.72;100.00;97094.49;104531;1272;62064;-46
2024/04/19 05:17:23;;;;;;;10.60;9.50;;;;;;;3.80;100.00;97097.50;104457;1268;62146;-47
2024/04/19 05:19:49;;;;;;;10.60;9.50;;;;;;;3.83;100.00;97101.15;104491;1273;75321;-47
2024/04/19 05:22:16;;;;;;;10.10;9.10;;;;;;;3.83;100.00;97100.21;104390;1268;66236;-53
2024/04/19 05:24:45;;;;;;;11.70;10.40;;;;;;;3.80;100.00;97097.50;104788;1268;71733;-51
2024/04/19 05:27:12;;;;;;;10.40;9.30;;;;;;;3.80;100.00;97102.05;104895;1273;61994;-55
2024/04/19 05:29:39;;;;;;;13.20;10.40;;;;;;;3.82;100.00;97107.20;104742;1268;62184;-53
2024/04/19 05:32:06;;;;;;;11.60;9.80;;;;;;;3.87;100.00;97109.56;104600;1268;62104;-53
2024/04/19 05:34:32;;;;;;;14.70;10.30;;;;;;;3.92;100.00;97110.41;104470;1268;65599;-51
2024/04/19 05:37:02;;;;;;;10.40;9.20;;;;;;;3.99;99.99;97117.64;104653;1268;72661;-49
2024/04/19 05:39:29;;;;;;;12.30;10.00;;;;;;;4.01;99.77;97114.77;104664;1268;62176;-43
2024/04/19 05:41:56;;;;;;;11.20;9.80;;;;;;;4.06;100.00;97118.27;104586;1268;62603;-48
2024/04/19 05:44:25;;;;;;;15.80;9.30;;;;;;;4.16;99.78;97128.30;104374;1268;75458;-51
2024/04/19 05:46:52;;;;;;;9.30;8.20;;;;;;;4.21;98.51;97117.11;104514;1268;65649;-49
2024/04/19 05:49:20;;;;;;;8.50;7.50;;;;;;;4.20;98.02;97125.60;104634;1268;72607;-49
2024/04/19 05:51:46;;;;;;;9.10;7.60;;;;;;;4.18;97.62;97119.83;104297;1276;62017;-45
2024/04/19 05:54:13;;;;;;;11.20;8.00;;;;;;;4.19;97.13;97124.42;104514;1268;62069;-57
2024/04/19 05:56:40;;;;;;;10.20;7.80;;;;;;;4.24;96.87;97130.46;104591;1268;75429;-50
2024/04/19 05:59:06;;;;;;;9.10;7.50;;;;;;;4.28;96.40;97136.64;104630;1273;64740;-52
2024/04/19 06:01:33;;;;;;;8.00;7.20;;;;;;;4.30;96.05;97132.88;104445;1268;73462;-54
2024/04/19 06:04:01;;;;;;;7.60;6.80;;;;;;;4.33;95.67;97134.23;104760;1274;62008;-52
2024/04/19 06:06:28;;;;;;;10.90;8.00;;;;;;;4.35;95.56;97128.98;104575;1268;62177;-51
2024/04/19 06:08:55;;;;;;;11.80;7.60;;;;;;;4.36;95.58;97129.98;104602;1272;76244;-53
2024/04/19 06:11:21;;;;;;;9.20;7.40;;;;;;;4.40;95.12;97129.55;104630;1271;66126;-51
2024/04/19 06:13:52;;;;;;;8.30;7.30;;;;;;;4.44;95.39;97125.84;104457;1269;73816;-46
2024/04/19 06:16:18;;;;;;;8.30;7.20;;;;;;;4.53;95.48;97134.42;104478;1268;62040;-47
2024/04/19 06:18:45;;;;;;;9.30;7.00;;;;;;;4.63;95.04;97132.10;104463;1268;62084;-50
2024/04/19 06:21:12;;;;;;;9.00;7.30;;;;;;;4.69;94.63;97134.84;104450;1273;75291;-53
2024/04/19 06:23:38;;;;;;;9.00;7.00;;;;;;;4.73;93.59;97143.45;104376;1273;65036;-53
2024/04/19 06:26:05;;;;;;;9.50;7.40;;;;;;;4.75;92.74;97143.88;104359;1268;72348;-54
2024/04/19 06:28:34;;;;;;;7.40;6.20;;;;;;;4.73;92.48;97142.73;104617;1268;62090;-55
2024/04/19 06:31:09;;;;;;;6.40;5.60;;;;;;;4.72;91.43;97152.38;104616;1272;62065;-56
2024/04/19 06:33:35;;;;;;;6.70;5.90;;;;;;;4.70;90.53;97157.75;104499;1268;76513;-53
2024/04/19 06:36:02;;;;;;;9.40;5.90;;;;;;;4.67;89.95;97158.98;104364;1270;64162;-51
2024/04/19 06:38:29;;;;;;;7.40;6.10;;;;;;;4.65;89.17;97155.27;104402;1268;72134;-52
2024/04/19 06:40:56;;;;;;;8.40;5.40;;;;;;;4.67;89.16;97163.91;104365;1268;62775;-52
2024/04/19 06:43:23;;;;;;;8.20;5.40;;;;;;;4.70;88.04;97162.52;104685;1272;62174;-54
2024/04/19 06:45:49;;;;;;;6.30;5.10;;;;;;;4.73;87.63;97159.75;104453;1274;75233;-52
2024/04/19 06:48:16;;;;;;;5.50;4.80;;;;;;;4.74;86.28;97155.50;104590;1272;66488;-51
2024/04/19 06:50:43;;;;;;;6.30;5.00;;;;;;;4.76;85.62;97157.93;108284;1268;71700;-53
2024/04/19 06:53:09;;;;;;;7.60;4.20;;;;;;;4.79;85.60;97159.02;106781;1268;62102;-41
2024/04/19 06:55:36;;;;;;;6.10;4.60;;;;;;;4.84;85.21;97157.77;104263;1268;62203;-44
2024/04/19 06:58:03;;;;;;;6.00;4.10;;;;;;;4.87;84.55;97165.20;104382;1268;62116;-46
2024/04/19 07:00:30;;;;;;;7.60;4.40;;;;;;;4.87;83.49;97166.00;104304;1268;66244;-48
2024/04/19 07:03:13;;;;;;;6.00;4.30;;;;;;;4.89;82.84;97163.08;104485;1269;73512;-43
2024/04/19 07:05:40;;;;;;;6.50;4.50;;;;;;;4.95;83.30;97173.12;104618;1272;62097;-51
2024/04/19 07:08:06;;;;;;;7.50;5.10;;;;;;;5.05;82.61;97179.76;104340;1268;62222;-51
2024/04/19 07:10:37;;;;;;;6.30;4.70;;;;;;;5.05;81.24;97175.19;104266;1273;76354;-51
2024/04/19 07:18:10;;;;;;;4.90;4.30;;;;;;;5.05;79.02;97181.88;104142;1272;72959;-45
2024/04/19 07:20:41;;;;;;;4.70;4.00;;;;;;;4.97;79.17;97172.78;104423;1273;62063;-48
2024/04/19 07:23:08;;;;;;;6.00;4.80;;;;;;;5.03;79.59;97180.77;104427;1268;62158;-49
2024/04/19 07:25:34;;;;;;;5.60;4.30;;;;;;;5.13;79.08;97180.17;104473;1273;75502;-47
2024/04/19 07:28:01;;;;;;;6.70;4.10;;;;;;;5.23;79.25;97186.91;104703;1268;65794;-48
2024/04/19 07:30:28;;;;;;;5.20;4.10;;;;;;;5.31;78.71;97185.11;104642;1268;73521;-45
2024/04/19 07:32:54;;;;;;;5.00;3.90;;;;;;;5.37;77.93;97185.56;104351;1273;63278;-48
2024/04/19 07:35:21;;;;;;;5.30;4.30;;;;;;;5.38;77.07;97178.65;104494;1272;62068;-49
2024/04/19 07:37:48;;;;;;;7.50;4.90;;;;;;;5.38;77.57;97174.34;104331;1272;75467;-54
2024/04/19 07:40:15;;;;;;;4.90;4.20;;;;;;;5.46;77.55;97183.63;104345;1273;64663;-47
2024/04/19 07:42:41;;;;;;;5.40;4.70;;;;;;;5.57;76.84;97189.51;108251;1268;72688;-47
2024/04/19 07:45:08;;;;;;;5.60;4.00;;;;;;;5.65;75.84;97181.58;108332;1268;60118;-55
2024/04/19 07:47:35;;;;;;;4.80;3.70;;;;;;;5.70;75.74;97180.27;104189;1274;62120;-52
2024/04/19 07:50:02;;;;;;;5.60;3.80;;;;;;;5.78;75.30;97185.36;104374;1268;75974;-53
2024/04/19 07:52:29;;;;;;;4.90;3.90;;;;;;;5.86;74.09;97187.96;106388;1268;64779;-55
2024/04/19 07:54:56;;;;;;;6.00;3.60;;;;;;;5.89;72.96;97197.52;104195;1268;72469;-49
2024/04/19 07:57:22;;;;;;;5.20;3.80;;;;;;;5.87;71.53;97187.00;104264;1272;62081;-46
2024/04/19 07:59:49;;;;;;;4.70;3.40;;;;;;;5.86;72.25;97188.19;104300;1268;62271;-48
2024/04/19 08:02:17;;;;;;;6.30;4.10;;;;;;;5.89;71.47;97191.55;104389;1268;62126;-52
2024/04/19 08:04:44;;;;;;;5.50;3.80;;;;;;;5.94;71.80;97189.77;104720;1270;66293;-47
2024/04/19 08:07:11;;;;;;;3.70;3.20;;;;;;;5.97;71.23;97200.48;104216;1268;73298;-46
2024/04/19 08:09:53;;;;;;;4.00;3.60;;;;;;;5.97;70.21;97186.85;104223;1268;62110;-46
2024/04/19 08:12:20;;;;;;;5.10;3.70;;;;;;;6.05;69.83;97189.23;108300;1268;60133;-45
2024/04/19 08:14:46;;;;;;;4.80;3.70;;;;;;;6.17;70.07;97193.22;108321;1268;59831;-51
2024/04/19 08:17:14;;;;;;;6.50;3.70;;;;;;;6.29;69.04;97197.73;108343;1268;67263;-48
2024/04/19 08:19:41;;;;;;;3.70;3.10;;;;;;;6.29;68.53;97195.49;108312;1268;73404;-45
2024/04/19 08:22:07;;;;;;;5.20;3.80;;;;;;;6.25;68.42;97204.04;108283;1268;60020;-47
2024/04/19 08:24:35;;;;;;;4.70;3.50;;;;;;;6.19;68.08;97204.09;105721;1268;62055;-47
2024/04/19 08:27:02;;;;;;;6.00;3.70;;;;;;;6.14;67.95;97204.27;104353;1273;75497;-56
2024/04/19 08:29:29;;;;;;;6.20;3.30;;;;;;;6.10;67.81;97210.02;104386;1272;65543;-54
2024/04/19 08:32:03;;;;;;;4.70;3.50;;;;;;;6.11;67.59;97202.64;104356;1274;73172;-45
2024/04/19 08:34:30;;;;;;;4.90;3.10;;;;;;;6.15;67.63;97206.79;104582;1274;62062;-44
2024/04/19 08:36:57;;;;;;;5.80;3.40;;;;;;;6.23;67.68;97201.40;104384;1268;62161;-46
2024/04/19 08:39:24;;;;;;;5.10;3.60;;;;;;;6.34;68.40;97199.00;104622;1272;75443;-46
2024/04/19 08:41:51;;;;;;;4.40;3.50;;;;;;;6.44;68.12;97201.66;104640;1274;65978;-47
2024/04/19 08:44:17;;;;;;;4.40;2.80;;;;;;;6.57;67.38;97208.98;104154;1268;73488;-44
2024/04/19 08:46:44;;;;;;;3.80;2.50;;;;;;;6.64;65.87;97201.06;104443;1273;62088;-46
2024/04/19 08:49:12;;;;;;;4.70;2.90;;;;;;;6.65;66.46;97200.85;104331;1268;62107;-52
2024/04/19 08:51:38;;;;;;;3.30;2.30;;;;;;;6.67;65.89;97211.25;104355;1277;76279;-52
2024/04/19 08:54:26;;;;;;;4.10;2.00;;;;;;;6.64;64.99;97206.17;104166;1273;65328;-52
2024/04/19 08:56:53;;;;;;;2.90;1.80;;;;;;;6.69;64.77;97200.95;105942;1275;73424;-52
2024/04/19 08:59:20;;;;;;;2.00;1.70;;;;;;;6.79;63.72;97205.03;104546;1274;62167;-52
2024/04/19 09:01:46;;;;;;;1.70;1.50;;;;;;;6.90;61.81;97213.43;104524;1268;62530;-51
2024/04/19 09:04:13;;;;;;;4.20;1.70;;;;;;;6.92;60.91;97218.52;104334;1273;76362;-52
2024/04/19 09:06:42;;;;;;;3.20;1.40;;;;;;;6.93;61.07;97215.42;104583;1268;65565;-55
2024/04/19 09:09:09;;;;;;;1.70;1.30;;;;;;;6.97;60.57;97218.20;104615;1268;72813;-56
2024/04/19 09:11:44;;;;;;;1.60;1.50;;;;;;;7.04;60.15;97214.33;104391;1268;61995;-51
2024/04/19 09:14:11;;;;;;;4.50;1.80;;;;;;;7.14;60.78;97212.81;104493;1268;62136;-48
2024/04/19 09:16:37;;;;;;;2.90;2.00;;;;;;;7.18;60.35;97221.45;104597;1268;75605;-50
2024/04/19 09:19:07;;;;;;;4.20;1.60;;;;;;;7.21;58.92;97222.25;104365;1268;66057;-50
2024/04/19 09:21:34;;;;;;;2.60;1.20;;;;;;;7.21;56.94;97228.58;104190;1274;72616;-50
2024/04/19 09:24:01;;;;;;;2.40;1.30;;;;;;;7.18;56.76;97223.46;104450;1268;62101;-50
2024/04/19 09:26:29;;;;;;;2.20;1.30;;;;;;;7.12;57.31;97224.11;104318;1272;62193;-50
2024/04/19 09:28:55;;;;;;;2.80;1.50;;;;;;;7.16;57.53;97228.92;104828;1268;75176;-49
2024/04/19 09:31:22;;;;;;;3.90;1.70;;;;;;;7.24;57.11;97233.60;104283;1272;65088;-43
2024/04/19 09:33:49;;;;;;;4.70;1.60;;;;;;;7.28;56.50;97241.44;104169;1274;73339;-52
2024/04/19 09:36:18;;;;;;;4.40;1.60;;;;;;;7.21;56.77;97244.46;104426;1272;62692;-50
2024/04/19 09:38:45;;;;;;;3.10;1.60;;;;;;;7.15;56.80;97241.52;105270;1269;62167;-50
2024/04/19 09:41:14;;;;;;;3.50;1.50;;;;;;;7.11;57.14;97241.50;104616;1272;77034;-52
2024/04/19 09:43:49;;;;;;;2.00;1.70;;;;;;;7.15;57.54;97244.16;104478;1273;66052;-48
2024/04/19 09:46:19;;;;;;;3.00;1.70;;;;;;;7.20;56.22;97249.33;104675;1271;72662;-46
2024/04/19 09:48:47;;;;;;;2.40;1.90;;;;;;;7.14;55.63;97253.19;104465;1272;63749;-52
2024/04/19 09:51:14;;;;;;;3.10;2.00;;;;;;;7.08;56.33;97258.80;104494;1268;62059;-50
2024/04/19 09:53:44;;;;;;;3.20;2.20;;;;;;;7.06;56.37;97262.17;104510;1273;76427;-45
2024/04/19 09:56:16;;;;;;;4.10;2.00;;;;;;;7.03;56.57;97262.02;104566;1273;66545;-52
2024/04/19 09:58:43;;;;;;;3.50;2.00;;;;;;;7.03;57.09;97263.39;104489;1273;73639;-58
2024/04/19 10:01:09;;;;;;;2.30;1.90;;;;;;;7.10;57.16;97266.70;104305;1276;62080;-49
2024/04/19 10:03:36;;;;;;;2.90;1.90;;;;;;;7.16;57.53;97262.89;105479;1272;62048;-51
2024/04/19 10:06:05;;;;;;;2.30;2.10;;;;;;;7.30;56.48;97265.17;104661;1273;75327;-57
2024/04/19 10:08:33;;;;;;;2.60;2.10;;;;;;;7.37;55.94;97263.86;104496;1273;65556;-51
2024/04/19 10:10:59;;;;;;;6.10;2.00;;;;;;;7.46;55.83;97259.15;104436;1268;73689;-55
2024/04/19 10:13:30;;;;;;;4.00;2.40;;;;;;;7.57;56.29;97254.41;104581;1273;62064;-52
2024/04/19 10:15:58;;;;;;;3.50;2.10;;;;;;;7.69;56.32;97252.48;104325;1273;62082;-57
2024/04/19 10:18:25;;;;;;;3.10;2.10;;;;;;;7.79;56.37;97251.69;104167;1274;75411;-50
2024/04/19 10:20:52;;;;;;;5.00;2.10;;;;;;;7.86;55.66;97249.88;104548;1274;66389;-52
2024/04/19 10:23:19;;;;;;;2.30;2.00;;;;;;;7.74;55.06;97251.45;104339;1274;72748;-49
2024/04/19 10:25:49;;;;;;;3.60;2.40;;;;;;;7.62;55.47;97251.30;104353;1273;62411;-50
2024/04/19 10:28:15;;;;;;;4.10;2.50;;;;;;;7.67;54.97;97252.84;104387;1268;62013;-50
2024/04/19 10:30:42;;;;;;;4.60;2.30;;;;;;;7.79;54.09;97250.73;104529;1272;76267;-49
2024/04/19 10:33:09;;;;;;;3.50;2.20;;;;;;;7.90;53.66;97247.20;104181;1272;66755;-45
2024/04/19 10:35:36;;;;;;;3.50;2.00;;;;;;;8.02;53.64;97246.80;104351;1273;62109;-53
2024/04/19 10:38:03;;;;;;;3.20;1.90;;;;;;;8.08;52.97;97241.21;104522;1274;62599;-48
2024/04/19 10:40:30;;;;;;;3.60;2.00;;;;;;;8.14;53.20;97247.67;104336;1270;62065;-44
2024/04/19 10:43:06;;;;;;;3.10;1.90;;;;;;;8.17;52.81;97245.42;104230;1274;75778;-52
2024/04/19 10:45:34;;;;;;;2.10;1.90;;;;;;;8.13;52.58;97245.70;104538;1273;67114;-49
2024/04/19 10:48:02;;;;;;;3.10;2.00;;;;;;;8.01;52.93;97246.77;104520;1269;72538;-49
2024/04/19 10:50:30;;;;;;;3.10;2.10;;;;;;;7.91;53.08;97247.30;104667;1273;62079;-47
2024/04/19 10:52:57;;;;;;;3.50;2.10;;;;;;;7.83;53.48;97252.27;104681;1272;62144;-48
2024/04/19 10:55:27;;;;;;;3.00;2.10;;;;;;;7.96;54.07;97256.88;108299;1268;76464;-48
2024/04/19 10:57:55;;;;;;;5.20;2.30;;;;;;;8.12;53.46;97250.52;104392;1273;66073;-58
2024/04/19 11:00:22;;;;;;;4.60;1.90;;;;;;;8.16;53.26;97253.45;106420;1270;73562;-53
2024/04/19 11:02:49;;;;;;;3.20;1.70;;;;;;;8.14;52.98;97256.40;104479;1273;62178;-50
2024/04/19 11:05:25;;;;;;;1.70;1.50;;;;;;;8.13;52.06;97252.21;104279;1272;62120;-49
2024/04/19 11:07:51;;;;;;;3.70;1.30;;;;;;;8.20;51.97;97252.20;104853;1270;76250;-53
2024/04/19 11:10:18;;;;;;;2.60;1.70;;;;;;;8.33;51.46;97248.88;104384;1276;66044;-52
2024/04/19 11:12:46;;;;;;;4.70;1.60;;;;;;;8.36;51.72;97245.52;104349;1273;72701;-45
2024/04/19 11:15:13;;;;;;;2.90;1.60;;;;;;;8.32;51.38;97253.44;104565;1273;62534;-55
2024/04/19 11:17:39;;;;;;;2.40;1.70;;;;;;;8.20;51.80;97251.98;104603;1272;62191;-54
2024/04/19 11:20:07;;;;;;;2.50;1.90;;;;;;;8.05;51.86;97254.70;104392;1274;75436;-55
2024/04/19 11:22:36;;;;;;;2.10;1.60;;;;;;;7.86;52.25;97253.77;104571;1273;64904;-51
2024/04/19 11:25:03;;;;;;;3.30;2.00;;;;;;;7.77;52.94;97255.89;104505;1273;72451;-55
2024/04/19 11:27:31;;;;;;;3.50;1.80;;;;;;;7.74;54.03;97255.97;104421;1273;62055;-52
2024/04/19 11:29:57;;;;;;;3.20;1.80;;;;;;;7.96;54.09;97248.97;104385;1268;62103;-51
2024/04/19 11:32:24;;;;;;;2.60;1.80;;;;;;;8.44;52.93;97238.84;104266;1277;77726;-49
2024/04/19 11:34:51;;;;;;;2.20;1.70;;;;;;;9.28;52.50;97240.20;104664;1273;66252;-51
2024/04/19 11:37:17;;;;;;;3.70;2.30;;;;;;;10.15;51.17;97232.50;104639;1273;73683;-50
2024/04/19 11:39:46;;;;;;;3.60;2.70;;;;;;;10.81;51.79;97224.29;104468;1274;62058;-52